createdAt,value
2019-02-24T00:00:55.244Z,8.00
2019-02-24T00:03:24.017Z,7.90
2019-02-24T00:05:53.321Z,7.90
2019-02-24T00:08:22.311Z,7.80
2019-02-24T00:10:51.208Z,7.80
2019-02-24T00:13:19.895Z,7.80
2019-02-24T00:15:48.371Z,7.80
2019-02-24T00:18:16.953Z,7.80
2019-02-24T00:20:45.433Z,7.80
2019-02-24T00:23:14.015Z,7.80
2019-02-24T00:25:42.599Z,7.70
2019-02-24T00:28:11.193Z,7.70
2019-02-24T00:30:39.869Z,7.70
2019-02-24T00:33:08.455Z,7.70
2019-02-24T00:35:37.038Z,7.60
2019-02-24T00:38:05.621Z,7.50
2019-02-24T00:40:34.103Z,7.40
2019-02-24T00:43:02.687Z,7.40
2019-02-24T00:45:31.270Z,7.50
2019-02-24T00:47:59.851Z,7.40
2019-02-24T00:50:28.396Z,7.40
2019-02-24T00:52:57.018Z,7.40
2019-02-24T00:55:25.602Z,7.50
2019-02-24T00:57:54.184Z,7.40
2019-02-24T01:00:22.768Z,7.40
2019-02-24T01:02:51.456Z,7.30
2019-02-24T01:05:19.935Z,7.40
2019-02-24T01:07:48.525Z,7.40
2019-02-24T01:10:17.103Z,7.50
2019-02-24T01:12:45.689Z,7.50
2019-02-24T01:15:14.268Z,7.40
2019-02-24T01:17:42.747Z,7.30
2019-02-24T01:20:11.230Z,7.30
2019-02-24T01:22:39.813Z,7.30
2019-02-24T01:25:08.394Z,7.30
2019-02-24T01:27:36.886Z,7.30
2019-02-24T01:30:07.405Z,7.20
2019-02-24T01:32:35.886Z,7.20
2019-02-24T01:35:04.984Z,7.10
2019-02-24T01:37:33.566Z,7.10
2019-02-24T01:40:02.047Z,7.00
2019-02-24T01:42:30.528Z,7.10
2019-02-24T01:44:59.111Z,7.00
2019-02-24T01:47:27.800Z,7.00
2019-02-24T01:49:56.276Z,6.90
2019-02-24T01:52:24.861Z,6.90
2019-02-24T01:54:53.444Z,6.90
2019-02-24T01:57:22.011Z,6.90
2019-02-24T01:59:50.610Z,6.80
2019-02-24T02:02:19.195Z,6.70
2019-02-24T02:04:47.779Z,6.80
2019-02-24T02:07:16.259Z,6.90
2019-02-24T02:09:44.740Z,7.00
2019-02-24T02:12:13.324Z,6.90
2019-02-24T02:14:41.906Z,7.00
2019-02-24T02:17:10.400Z,7.10
2019-02-24T02:19:38.867Z,7.10
2019-02-24T02:22:07.452Z,7.00
2019-02-24T02:24:35.932Z,6.90
2019-02-24T02:27:04.617Z,6.80
2019-02-24T02:29:33.200Z,6.70
2019-02-24T02:32:01.784Z,6.60
2019-02-24T02:34:30.266Z,6.70
2019-02-24T02:36:58.864Z,6.60
2019-02-24T02:39:27.328Z,6.60
2019-02-24T02:41:55.810Z,6.50
2019-02-24T02:44:24.406Z,6.40
2019-02-24T02:46:52.876Z,6.50
2019-02-24T02:49:21.457Z,6.40
2019-02-24T02:51:49.939Z,6.40
2019-02-24T02:54:18.523Z,6.50
2019-02-24T02:56:47.105Z,6.60
2019-02-24T02:59:15.691Z,6.60
2019-02-24T03:01:44.170Z,6.50
2019-02-24T03:04:12.652Z,6.50
2019-02-24T03:06:45.842Z,6.40
2019-02-24T03:09:14.427Z,6.30
2019-02-24T03:11:43.010Z,6.30
2019-02-24T03:14:11.491Z,6.20
2019-02-24T03:16:39.971Z,6.20
2019-02-24T03:19:08.555Z,6.20
2019-02-24T03:21:37.138Z,6.10
2019-02-24T03:24:05.619Z,6.10
2019-02-24T03:26:34.201Z,6.10
2019-02-24T03:29:04.377Z,6.00
2019-02-24T03:31:33.218Z,5.90
2019-02-24T03:34:01.806Z,6.00
2019-02-24T03:36:30.481Z,6.00
2019-02-24T03:38:59.065Z,6.00
2019-02-24T03:41:27.648Z,6.00
2019-02-24T03:43:56.338Z,6.00
2019-02-24T03:46:25.023Z,6.00
2019-02-24T03:48:53.603Z,6.00
2019-02-24T03:51:22.188Z,6.00
2019-02-24T03:53:50.774Z,6.00
2019-02-24T03:56:19.254Z,6.00
2019-02-24T03:58:47.836Z,5.90
2019-02-24T04:01:16.420Z,5.80
2019-02-24T04:03:45.109Z,5.80
2019-02-24T04:06:13.586Z,5.80
2019-02-24T04:08:42.183Z,5.80
2019-02-24T04:11:10.749Z,5.80
2019-02-24T04:13:39.334Z,5.80
2019-02-24T04:16:07.916Z,5.80
2019-02-24T04:18:36.398Z,5.90
2019-02-24T04:21:04.988Z,5.90
2019-02-24T04:23:33.574Z,5.90
2019-02-24T04:26:02.155Z,5.90
2019-02-24T04:28:30.636Z,5.90
2019-02-24T04:30:59.116Z,5.90
2019-02-24T04:33:27.591Z,5.90
2019-02-24T04:35:56.185Z,5.90
2019-02-24T04:38:24.758Z,5.90
2019-02-24T04:40:53.341Z,5.90
2019-02-24T04:43:21.823Z,6.10
2019-02-24T04:45:50.509Z,6.00
2019-02-24T04:48:18.984Z,5.70
2019-02-24T04:50:47.469Z,5.50
2019-02-24T04:53:16.051Z,5.60
2019-02-24T04:55:44.534Z,5.80
2019-02-24T04:58:13.116Z,5.90
2019-02-24T05:00:41.599Z,5.80
2019-02-24T05:03:10.079Z,5.70
2019-02-24T05:05:38.565Z,5.40
2019-02-24T05:08:07.144Z,5.20
2019-02-24T05:10:35.733Z,5.30
2019-02-24T05:13:05.644Z,5.50
2019-02-24T05:15:34.122Z,5.60
2019-02-24T05:18:02.705Z,5.60
2019-02-24T05:20:31.292Z,5.50
2019-02-24T05:22:59.770Z,5.60
2019-02-24T05:25:28.356Z,5.60
2019-02-24T05:27:56.939Z,5.80
2019-02-24T05:30:25.628Z,5.90
2019-02-24T05:32:54.208Z,5.70
2019-02-24T05:35:22.836Z,5.50
2019-02-24T05:37:51.474Z,5.30
2019-02-24T05:40:20.058Z,5.30
2019-02-24T05:42:48.538Z,5.30
2019-02-24T05:45:17.021Z,5.30
2019-02-24T05:47:46.421Z,5.20
2019-02-24T05:50:15.024Z,5.10
2019-02-24T05:52:43.486Z,5.10
2019-02-24T05:55:12.172Z,4.90
2019-02-24T05:57:40.620Z,4.80
2019-02-24T06:00:09.138Z,4.70
2019-02-24T06:02:37.734Z,4.70
2019-02-24T06:05:06.299Z,5.00
2019-02-24T06:07:34.784Z,5.10
2019-02-24T06:10:03.368Z,5.30
2019-02-24T06:12:31.962Z,5.30
2019-02-24T06:15:00.533Z,5.50
2019-02-24T06:17:29.109Z,5.50
2019-02-24T06:19:57.600Z,5.40
2019-02-24T06:22:26.076Z,5.30
2019-02-24T06:24:54.670Z,5.30
2019-02-24T06:27:23.144Z,5.10
2019-02-24T06:29:51.622Z,4.80
2019-02-24T06:32:20.310Z,4.60
2019-02-24T06:34:48.797Z,4.60
2019-02-24T06:37:17.400Z,4.60
2019-02-24T06:39:46.061Z,4.60
2019-02-24T06:42:14.642Z,4.80
2019-02-24T06:44:43.123Z,4.80
2019-02-24T06:47:11.813Z,4.70
2019-02-24T06:49:40.496Z,4.70
2019-02-24T06:52:08.963Z,4.70
2019-02-24T06:54:37.557Z,4.70
2019-02-24T06:57:06.038Z,4.60
2019-02-24T06:59:34.627Z,4.60
2019-02-24T07:02:03.108Z,4.80
2019-02-24T07:04:31.792Z,5.10
2019-02-24T07:07:00.372Z,5.30
2019-02-24T07:09:28.854Z,5.40
2019-02-24T07:11:57.436Z,5.40
2019-02-24T07:14:26.846Z,5.30
2019-02-24T07:16:58.186Z,5.20
2019-02-24T07:19:26.667Z,5.40
2019-02-24T07:21:56.481Z,5.70
2019-02-24T07:24:27.235Z,5.90
2019-02-24T07:26:57.776Z,6.00
2019-02-24T07:29:26.722Z,6.00
2019-02-24T07:31:57.679Z,6.00
2019-02-24T07:34:26.363Z,6.00
2019-02-24T07:36:55.253Z,6.00
2019-02-24T07:39:24.658Z,6.00
2019-02-24T07:41:53.664Z,6.10
2019-02-24T07:44:22.336Z,6.20
2019-02-24T07:46:53.503Z,6.30
2019-02-24T07:49:22.969Z,6.30
2019-02-24T07:51:52.610Z,6.50
2019-02-24T07:54:22.107Z,6.70
2019-02-24T07:56:51.012Z,6.80
2019-02-24T07:59:20.479Z,6.90
2019-02-24T08:01:50.505Z,6.90
2019-02-24T08:04:21.638Z,6.90
2019-02-24T08:06:53.168Z,6.80
2019-02-24T08:09:23.082Z,7.00
2019-02-24T08:11:51.597Z,7.10
2019-02-24T08:14:21.011Z,6.90
2019-02-24T08:16:50.581Z,6.60
2019-02-24T08:19:19.871Z,6.70
2019-02-24T08:21:50.566Z,7.10
2019-02-24T08:24:19.826Z,7.40
2019-02-24T08:26:50.255Z,7.50
2019-02-24T08:29:19.052Z,7.70
2019-02-24T08:31:48.662Z,7.90
2019-02-24T08:34:18.929Z,8.00
2019-02-24T08:39:37.552Z,8.10
2019-02-24T08:42:06.137Z,8.30
2019-02-24T08:44:35.227Z,8.40
2019-02-24T08:47:03.818Z,8.50
2019-02-24T08:49:32.400Z,8.80
2019-02-24T08:52:00.878Z,8.90
2019-02-24T08:54:29.471Z,9.00
2019-02-24T08:56:58.047Z,9.10
2019-02-24T08:59:26.692Z,9.30
2019-02-24T09:01:58.674Z,9.50
2019-02-24T09:04:27.176Z,9.70
2019-02-24T09:06:55.759Z,9.90
2019-02-24T09:09:24.445Z,9.90
2019-02-24T09:11:53.132Z,9.80
2019-02-24T09:14:21.809Z,9.90
2019-02-24T09:16:50.505Z,10.20
2019-02-24T09:19:20.099Z,10.60
2019-02-24T09:21:48.795Z,11.10
2019-02-24T09:24:17.692Z,11.60
2019-02-24T09:26:46.370Z,12.30
2019-02-24T09:29:15.067Z,13.10
2019-02-24T09:31:43.639Z,14.20
2019-02-24T09:34:12.252Z,15.50
2019-02-24T09:36:40.709Z,16.60
2019-02-24T09:39:09.394Z,17.90
2019-02-24T09:41:38.309Z,19.10
2019-02-24T09:44:06.971Z,20.00
2019-02-24T09:46:35.652Z,20.80
2019-02-24T09:49:04.243Z,21.70
2019-02-24T09:51:32.971Z,22.10
2019-02-24T09:54:04.173Z,22.40
2019-02-24T09:56:32.752Z,22.90
2019-02-24T09:59:01.231Z,23.40
2019-02-24T10:01:29.813Z,24.40
2019-02-24T10:03:58.500Z,25.30
2019-02-24T10:06:26.980Z,25.70
2019-02-24T10:08:55.667Z,26.40
2019-02-24T10:11:24.251Z,26.80
2019-02-24T10:13:52.834Z,26.50
2019-02-24T10:16:22.032Z,27.00
2019-02-24T10:18:50.703Z,27.40
2019-02-24T10:21:19.402Z,27.30
2019-02-24T10:23:47.986Z,28.20
2019-02-24T10:26:16.670Z,28.80
2019-02-24T10:28:47.627Z,29.50
2019-02-24T10:31:19.882Z,30.40
2019-02-24T10:33:45.801Z,30.50
2019-02-24T10:36:14.386Z,30.40
2019-02-24T10:38:43.174Z,30.50
2019-02-24T10:41:11.653Z,29.80
2019-02-24T10:43:40.339Z,30.60
2019-02-24T10:46:11.255Z,31.70
2019-02-24T10:48:39.353Z,32.00
2019-02-24T10:51:08.034Z,32.20
2019-02-24T10:53:36.624Z,31.60
2019-02-24T10:56:05.307Z,31.80
2019-02-24T10:58:34.892Z,32.10
2019-02-24T11:01:03.906Z,32.10
2019-02-24T11:03:32.616Z,31.50
2019-02-24T11:06:01.377Z,31.30
2019-02-24T11:08:30.064Z,32.10
2019-02-24T11:10:58.748Z,32.40
2019-02-24T11:13:27.348Z,32.70
2019-02-24T11:15:56.334Z,33.20
2019-02-24T11:18:26.372Z,34.10
2019-02-24T11:20:55.340Z,34.30
2019-02-24T11:23:24.032Z,33.70
2019-02-24T11:25:52.775Z,33.80
2019-02-24T11:28:21.604Z,33.70
2019-02-24T11:30:51.156Z,33.80
2019-02-24T11:33:20.143Z,34.10
2019-02-24T11:35:48.946Z,34.40
2019-02-24T11:38:17.673Z,34.70
2019-02-24T11:40:46.261Z,34.30
2019-02-24T11:43:15.469Z,34.40
2019-02-24T11:45:44.242Z,34.30
2019-02-24T11:48:13.854Z,35.30
2019-02-24T11:50:42.640Z,35.60
2019-02-24T11:53:11.172Z,35.60
2019-02-24T11:55:44.939Z,34.80
2019-02-24T11:58:25.403Z,34.00
2019-02-24T12:00:59.711Z,33.70
2019-02-24T12:03:34.515Z,33.60
2019-02-24T12:06:07.808Z,33.90
2019-02-24T12:08:43.184Z,34.80
2019-02-24T12:11:18.715Z,35.10
2019-02-24T12:13:52.403Z,35.30
2019-02-24T12:16:25.186Z,36.40
2019-02-24T12:18:54.867Z,36.60
2019-02-24T12:21:25.284Z,37.00
2019-02-24T12:23:57.954Z,35.20
2019-02-24T12:26:30.052Z,34.60
2019-02-24T12:29:01.463Z,36.10
2019-02-24T12:31:35.688Z,37.20
2019-02-24T12:34:09.793Z,37.80
2019-02-24T12:36:49.782Z,38.10
2019-02-24T12:39:23.408Z,38.30
2019-02-24T12:41:57.813Z,38.70
2019-02-24T12:44:28.002Z,38.50
2019-02-24T12:47:02.620Z,38.30
2019-02-24T12:49:31.362Z,38.70
2019-02-24T12:52:00.086Z,39.70
2019-02-24T12:54:35.394Z,39.80
2019-02-24T12:57:06.193Z,39.80
2019-02-24T12:59:34.954Z,38.90
2019-02-24T13:02:05.606Z,39.50
2019-02-24T13:04:36.077Z,39.30
2019-02-24T13:07:05.883Z,39.40
2019-02-24T13:09:38.802Z,39.30
2019-02-24T13:12:07.521Z,39.70
2019-02-24T13:14:41.339Z,40.00
2019-02-24T13:17:13.163Z,39.90
2019-02-24T13:19:45.048Z,40.10
2019-02-24T13:22:16.056Z,39.90
2019-02-24T13:24:46.754Z,40.10
2019-02-24T13:27:17.917Z,40.90
2019-02-24T13:29:48.512Z,42.10
2019-02-24T13:32:18.677Z,41.70
2019-02-24T13:34:48.435Z,41.20
2019-02-24T13:37:17.971Z,41.60
2019-02-24T13:39:48.128Z,42.30
2019-02-24T13:42:17.778Z,42.20
2019-02-24T13:44:48.062Z,41.70
2019-02-24T13:47:18.392Z,42.10
2019-02-24T13:49:49.165Z,42.10
2019-02-24T13:52:20.049Z,41.40
2019-02-24T13:54:52.569Z,42.20
2019-02-24T13:57:22.799Z,41.80
2019-02-24T13:59:51.709Z,41.40
2019-02-24T14:02:24.033Z,40.20
2019-02-24T14:04:52.076Z,38.60
2019-02-24T14:07:23.626Z,38.30
2019-02-24T14:09:53.103Z,37.70
2019-02-24T14:12:25.171Z,37.50
2019-02-24T14:14:54.098Z,37.10
2019-02-24T14:17:22.736Z,37.20
2019-02-24T14:19:52.025Z,36.80
2019-02-24T14:22:21.590Z,37.00
2019-02-24T14:24:50.086Z,36.90
2019-02-24T14:27:18.714Z,37.40
2019-02-24T14:29:54.475Z,36.90
2019-02-24T14:32:23.156Z,35.80
2019-02-24T14:34:51.601Z,35.20
2019-02-24T14:37:20.189Z,34.30
2019-02-24T14:39:48.654Z,33.80
2019-02-24T14:42:17.133Z,33.40
2019-02-24T14:44:45.834Z,33.00
2019-02-24T14:47:14.399Z,32.60
2019-02-24T14:49:42.907Z,32.20
2019-02-24T14:52:11.556Z,32.00
2019-02-24T14:54:40.220Z,32.10
2019-02-24T14:57:08.894Z,32.30
2019-02-24T14:59:37.459Z,31.70
2019-02-24T15:02:05.998Z,30.80
2019-02-24T15:04:34.499Z,30.90
2019-02-24T15:07:03.009Z,31.60
2019-02-24T15:09:31.559Z,32.20
2019-02-24T15:12:00.177Z,32.70
2019-02-24T15:14:30.251Z,33.00
2019-02-24T15:16:59.327Z,34.00
2019-02-24T15:19:28.818Z,34.70
2019-02-24T15:21:57.437Z,34.90
2019-02-24T15:24:25.909Z,34.40
2019-02-24T15:26:54.460Z,34.40
2019-02-24T15:29:23.935Z,33.40
2019-02-24T15:31:52.401Z,31.90
2019-02-24T15:34:20.931Z,30.70
2019-02-24T15:36:49.411Z,29.80
2019-02-24T15:39:17.928Z,28.80
2019-02-24T15:41:46.460Z,27.60
2019-02-24T15:44:16.786Z,27.00
2019-02-24T15:46:48.998Z,26.30
2019-02-24T15:49:17.563Z,26.50
2019-02-24T15:51:46.080Z,27.40
2019-02-24T15:54:15.047Z,28.10
2019-02-24T15:56:43.600Z,28.70
2019-02-24T15:59:13.855Z,28.80
2019-02-24T16:01:42.983Z,28.30
2019-02-24T16:04:11.466Z,28.10
2019-02-24T16:06:41.091Z,28.60
2019-02-24T16:09:09.675Z,29.80
2019-02-24T16:11:38.142Z,30.80
2019-02-24T16:14:06.670Z,31.80
2019-02-24T16:16:35.336Z,31.70
2019-02-24T16:19:03.809Z,31.80
2019-02-24T16:21:32.362Z,32.20
2019-02-24T16:24:01.025Z,31.90
2019-02-24T16:26:29.494Z,31.50
2019-02-24T16:28:58.050Z,31.10
2019-02-24T16:31:26.480Z,30.60
2019-02-24T16:33:55.117Z,29.70
2019-02-24T16:36:27.419Z,29.10
2019-02-24T16:38:56.663Z,28.60
2019-02-24T16:41:26.793Z,28.50
2019-02-24T16:43:55.525Z,28.20
2019-02-24T16:46:24.091Z,27.80
2019-02-24T16:48:52.562Z,27.50
2019-02-24T16:51:22.082Z,26.90
2019-02-24T16:53:52.396Z,26.40
2019-02-24T16:56:22.495Z,26.10
2019-02-24T16:58:51.158Z,25.70
2019-02-24T17:01:19.767Z,24.90
2019-02-24T17:03:48.372Z,23.90
2019-02-24T17:06:17.231Z,22.80
2019-02-24T17:08:52.269Z,21.50
2019-02-24T17:11:17.542Z,20.60
2019-02-24T17:13:46.046Z,20.00
2019-02-24T17:16:16.787Z,19.50
2019-02-24T17:18:45.256Z,19.00
2019-02-24T17:21:13.900Z,18.60
2019-02-24T17:23:49.714Z,18.20
2019-02-24T17:26:12.716Z,17.90
2019-02-24T17:28:41.167Z,17.50
2019-02-24T17:31:12.894Z,17.20
2019-02-24T17:33:41.533Z,16.90
2019-02-24T17:36:10.220Z,16.60
2019-02-24T17:38:38.802Z,16.30
2019-02-24T17:41:07.275Z,16.10
2019-02-24T17:43:35.905Z,15.90
2019-02-24T17:46:08.965Z,15.70
2019-02-24T17:48:37.424Z,15.50
2019-02-24T17:51:06.055Z,15.30
2019-02-24T17:53:34.556Z,15.20
2019-02-24T17:56:03.050Z,15.10
2019-02-24T17:58:31.526Z,15.00
2019-02-24T18:01:01.588Z,15.00
2019-02-24T18:03:38.777Z,14.80
2019-02-24T18:06:00.259Z,14.80
2019-02-24T18:08:34.380Z,14.70
2019-02-24T18:11:03.240Z,14.70
2019-02-24T18:13:32.029Z,14.60
2019-02-24T18:16:00.907Z,14.50
2019-02-24T18:18:29.807Z,14.30
2019-02-24T18:20:59.419Z,14.10
2019-02-24T18:23:27.927Z,14.00
2019-02-24T18:25:56.472Z,13.90
2019-02-24T18:28:24.989Z,13.90
2019-02-24T18:30:53.451Z,13.90
2019-02-24T18:33:22.026Z,13.80
2019-02-24T18:35:50.723Z,13.70
2019-02-24T18:38:19.282Z,13.60
2019-02-24T18:40:47.768Z,13.60
2019-02-24T18:43:16.282Z,13.60
2019-02-24T18:45:44.803Z,13.60
2019-02-24T18:48:13.263Z,13.60
2019-02-24T18:50:41.940Z,13.50
2019-02-24T18:53:10.389Z,13.60
2019-02-24T18:55:38.969Z,13.60
2019-02-24T18:58:07.505Z,13.70
2019-02-24T19:00:35.975Z,13.60
2019-02-24T19:03:04.617Z,13.40
2019-02-24T19:05:33.087Z,13.40
2019-02-24T19:08:01.603Z,13.30
2019-02-24T19:10:30.323Z,13.20
2019-02-24T19:12:58.793Z,13.20
2019-02-24T19:15:27.527Z,13.10
2019-02-24T19:17:56.316Z,13.10
2019-02-24T19:20:25.193Z,13.10
2019-02-24T19:22:53.734Z,13.20
2019-02-24T19:25:22.219Z,13.30
2019-02-24T19:27:50.853Z,13.30
2019-02-24T19:30:21.587Z,13.20
2019-02-24T19:32:52.135Z,13.20
2019-02-24T19:35:21.827Z,13.30
2019-02-24T19:37:51.691Z,13.30
2019-02-24T19:40:22.257Z,13.10
2019-02-24T19:43:11.856Z,12.80
2019-02-24T19:45:40.534Z,12.60
2019-02-24T19:48:11.963Z,12.40
2019-02-24T19:50:45.114Z,12.30
2019-02-24T19:53:15.083Z,12.30
2019-02-24T19:55:46.955Z,12.40
2019-02-24T19:58:16.943Z,12.30
2019-02-24T20:00:51.047Z,12.30
2019-02-24T20:03:21.784Z,12.30
2019-02-24T20:05:52.450Z,12.20
2019-02-24T20:08:22.667Z,12.30
2019-02-24T20:10:56.712Z,12.30
2019-02-24T20:13:29.592Z,12.50
2019-02-24T20:16:00.388Z,12.40
2019-02-24T20:18:32.277Z,12.40
2019-02-24T20:21:05.138Z,12.40
2019-02-24T20:23:37.114Z,12.20
2019-02-24T20:26:08.762Z,12.10
2019-02-24T20:28:44.026Z,12.00
2019-02-24T20:31:18.390Z,11.90
2019-02-24T20:33:51.365Z,11.80
2019-02-24T20:36:24.539Z,11.80
2019-02-24T20:38:54.126Z,11.90
2019-02-24T20:41:47.505Z,11.80
2019-02-24T20:44:18.621Z,11.70
2019-02-24T20:46:50.368Z,11.70
2019-02-24T20:49:22.340Z,11.60
2019-02-24T20:51:54.116Z,11.60
2019-02-24T20:54:25.469Z,11.60
2019-02-24T20:56:55.456Z,11.50
2019-02-24T20:59:26.896Z,11.50
2019-02-24T21:02:00.094Z,11.50
2019-02-24T21:04:32.716Z,11.50
2019-02-24T21:07:05.497Z,11.40
2019-02-24T21:09:43.135Z,11.50
2019-02-24T21:12:15.750Z,11.40
2019-02-24T21:14:44.517Z,11.30
2019-02-24T21:17:15.939Z,11.20
2019-02-24T21:19:46.647Z,11.10
2019-02-24T21:22:16.609Z,11.00
2019-02-24T21:24:49.193Z,11.00
2019-02-24T21:27:22.926Z,10.90
2019-02-24T21:29:53.145Z,10.90
2019-02-24T21:32:25.930Z,10.80
2019-02-24T21:35:00.150Z,10.80
2019-02-24T21:37:33.771Z,10.70
2019-02-24T21:40:10.177Z,10.70
2019-02-24T21:42:39.737Z,10.60
2019-02-24T21:45:13.096Z,10.70
2019-02-24T21:47:41.645Z,10.80
2019-02-24T21:50:19.153Z,10.80
2019-02-24T21:52:48.978Z,10.80
2019-02-24T21:55:20.699Z,10.80
2019-02-24T21:57:54.060Z,10.70
2019-02-24T22:00:27.853Z,10.40
2019-02-24T22:03:02.294Z,10.20
2019-02-24T22:05:36.380Z,10.00
2019-02-24T22:08:10.478Z,9.90
2019-02-24T22:10:44.406Z,10.00
2019-02-24T22:13:22.095Z,10.00
2019-02-24T22:15:53.221Z,9.90
2019-02-24T22:18:28.159Z,9.90
2019-02-24T22:21:01.641Z,10.00
2019-02-24T22:23:35.237Z,10.00
2019-02-24T22:26:06.807Z,9.90
2019-02-24T22:28:36.536Z,9.90
2019-02-24T22:31:05.859Z,9.90
2019-02-24T22:33:36.902Z,9.90
2019-02-24T22:36:05.640Z,9.90
2019-02-24T22:38:35.503Z,9.90
2019-02-24T22:41:05.616Z,9.90
2019-02-24T22:43:36.565Z,9.90
2019-02-24T22:46:05.925Z,10.00
2019-02-24T22:48:37.638Z,9.90
2019-02-24T22:51:11.212Z,9.90
2019-02-24T22:53:43.766Z,9.90
2019-02-24T22:56:12.980Z,9.90
2019-02-24T22:58:43.670Z,10.00
2019-02-24T23:01:16.888Z,10.00
2019-02-24T23:03:47.151Z,10.00
2019-02-24T23:06:18.762Z,10.10
2019-02-24T23:08:49.188Z,10.00
2019-02-24T23:11:20.835Z,10.10
2019-02-24T23:13:50.750Z,10.30
2019-02-24T23:16:20.232Z,10.30
2019-02-24T23:18:50.793Z,10.30
2019-02-24T23:21:20.821Z,10.40
2019-02-24T23:23:49.285Z,10.30
2019-02-24T23:26:17.826Z,10.30
2019-02-24T23:28:46.353Z,10.30
2019-02-24T23:31:14.865Z,10.20
2019-02-24T23:33:43.366Z,10.30
2019-02-24T23:36:11.843Z,10.40
2019-02-24T23:38:40.484Z,10.50
2019-02-24T23:41:09.126Z,10.50
2019-02-24T23:43:37.693Z,10.60
2019-02-24T23:46:06.199Z,10.60
2019-02-24T23:48:34.740Z,10.50
2019-02-24T23:51:03.289Z,10.50
2019-02-24T23:53:31.769Z,10.40
2019-02-24T23:56:00.354Z,10.30
2019-02-24T23:58:28.939Z,10.20
